sensor_id;sensor_type;location;lat;lon;timestamp;P1;durP1;ratioP1;P2;durP2;ratioP2
24637;SDS011;12773;50.162;8.548;2022-11-10T00:01:06;12.13;;;5.35;;
24637;SDS011;12773;50.162;8.548;2022-11-10T00:03:55;12.43;;;5.67;;
24637;SDS011;12773;50.162;8.548;2022-11-10T00:06:47;12.88;;;4.65;;
24637;SDS011;12773;50.162;8.548;2022-11-10T00:09:34;12.28;;;4.33;;
24637;SDS011;12773;50.162;8.548;2022-11-10T00:12:21;13.58;;;4.95;;
24637;SDS011;12773;50.162;8.548;2022-11-10T00:15:09;14.00;;;5.22;;
24637;SDS011;12773;50.162;8.548;2022-11-10T00:18:14;11.30;;;5.78;;
24637;SDS011;12773;50.162;8.548;2022-11-10T00:21:05;19.82;;;5.92;;
24637;SDS011;12773;50.162;8.548;2022-11-10T00:23:54;17.15;;;6.20;;
24637;SDS011;12773;50.162;8.548;2022-11-10T00:26:42;21.42;;;6.90;;
24637;SDS011;12773;50.162;8.548;2022-11-10T00:29:29;20.57;;;6.87;;
24637;SDS011;12773;50.162;8.548;2022-11-10T00:32:17;18.12;;;7.12;;
24637;SDS011;12773;50.162;8.548;2022-11-10T00:35:05;18.80;;;6.47;;
24637;SDS011;12773;50.162;8.548;2022-11-10T00:37:52;14.87;;;5.58;;
24637;SDS011;12773;50.162;8.548;2022-11-10T00:40:42;11.83;;;5.40;;
24637;SDS011;12773;50.162;8.548;2022-11-10T00:43:29;16.25;;;6.08;;
24637;SDS011;12773;50.162;8.548;2022-11-10T00:46:17;11.30;;;5.83;;
24637;SDS011;12773;50.162;8.548;2022-11-10T00:49:06;12.37;;;6.40;;
24637;SDS011;12773;50.162;8.548;2022-11-10T00:51:53;24.43;;;8.15;;
24637;SDS011;12773;50.162;8.548;2022-11-10T00:54:40;14.85;;;6.28;;
24637;SDS011;12773;50.162;8.548;2022-11-10T00:57:28;12.28;;;5.15;;
24637;SDS011;12773;50.162;8.548;2022-11-10T01:00:16;11.53;;;5.35;;
24637;SDS011;12773;50.162;8.548;2022-11-10T01:03:03;14.00;;;4.85;;
24637;SDS011;12773;50.162;8.548;2022-11-10T01:05:51;16.10;;;5.05;;
24637;SDS011;12773;50.162;8.548;2022-11-10T01:08:38;13.20;;;4.92;;
24637;SDS011;12773;50.162;8.548;2022-11-10T01:11:26;16.07;;;5.62;;
24637;SDS011;12773;50.162;8.548;2022-11-10T01:14:14;17.15;;;6.20;;
24637;SDS011;12773;50.162;8.548;2022-11-10T01:17:01;16.15;;;5.85;;
24637;SDS011;12773;50.162;8.548;2022-11-10T01:19:49;15.23;;;6.58;;
24637;SDS011;12773;50.162;8.548;2022-11-10T01:22:39;16.57;;;7.17;;
24637;SDS011;12773;50.162;8.548;2022-11-10T01:25:26;20.57;;;7.87;;
24637;SDS011;12773;50.162;8.548;2022-11-10T01:28:14;11.78;;;6.45;;
24637;SDS011;12773;50.162;8.548;2022-11-10T01:31:05;13.72;;;6.00;;
24637;SDS011;12773;50.162;8.548;2022-11-10T01:33:54;18.95;;;6.10;;
24637;SDS011;12773;50.162;8.548;2022-11-10T01:36:43;13.75;;;4.62;;
24637;SDS011;12773;50.162;8.548;2022-11-10T01:39:31;16.32;;;5.70;;
24637;SDS011;12773;50.162;8.548;2022-11-10T01:42:26;19.07;;;7.20;;
24637;SDS011;12773;50.162;8.548;2022-11-10T01:48:15;17.52;;;6.12;;
24637;SDS011;12773;50.162;8.548;2022-11-10T01:51:12;13.98;;;6.40;;
24637;SDS011;12773;50.162;8.548;2022-11-10T01:54:11;19.73;;;5.75;;
24637;SDS011;12773;50.162;8.548;2022-11-10T01:57:02;12.90;;;5.80;;
24637;SDS011;12773;50.162;8.548;2022-11-10T01:59:53;15.43;;;6.95;;
24637;SDS011;12773;50.162;8.548;2022-11-10T02:02:54;15.58;;;6.60;;
24637;SDS011;12773;50.162;8.548;2022-11-10T02:05:49;18.23;;;6.87;;
24637;SDS011;12773;50.162;8.548;2022-11-10T02:08:38;18.92;;;7.15;;
24637;SDS011;12773;50.162;8.548;2022-11-10T02:11:28;20.32;;;6.70;;
24637;SDS011;12773;50.162;8.548;2022-11-10T02:14:17;19.42;;;8.10;;
24637;SDS011;12773;50.162;8.548;2022-11-10T02:17:05;18.55;;;7.42;;
24637;SDS011;12773;50.162;8.548;2022-11-10T02:19:52;19.32;;;7.55;;
24637;SDS011;12773;50.162;8.548;2022-11-10T02:22:42;24.00;;;7.45;;
24637;SDS011;12773;50.162;8.548;2022-11-10T02:25:30;17.80;;;7.55;;
24637;SDS011;12773;50.162;8.548;2022-11-10T02:28:18;22.13;;;6.92;;
24637;SDS011;12773;50.162;8.548;2022-11-10T02:31:06;20.00;;;6.25;;
24637;SDS011;12773;50.162;8.548;2022-11-10T02:33:54;20.27;;;7.22;;
24637;SDS011;12773;50.162;8.548;2022-11-10T02:36:42;22.30;;;6.87;;
24637;SDS011;12773;50.162;8.548;2022-11-10T02:39:29;21.37;;;6.42;;
24637;SDS011;12773;50.162;8.548;2022-11-10T02:42:16;16.57;;;7.15;;
24637;SDS011;12773;50.162;8.548;2022-11-10T02:45:04;18.75;;;7.28;;
24637;SDS011;12773;50.162;8.548;2022-11-10T02:47:53;25.45;;;7.20;;
24637;SDS011;12773;50.162;8.548;2022-11-10T02:50:41;16.30;;;6.35;;
24637;SDS011;12773;50.162;8.548;2022-11-10T02:53:28;24.25;;;7.28;;
24637;SDS011;12773;50.162;8.548;2022-11-10T02:56:16;24.20;;;7.25;;
24637;SDS011;12773;50.162;8.548;2022-11-10T02:59:16;21.20;;;7.12;;
24637;SDS011;12773;50.162;8.548;2022-11-10T03:02:16;23.18;;;6.85;;
24637;SDS011;12773;50.162;8.548;2022-11-10T03:05:07;17.92;;;6.20;;
24637;SDS011;12773;50.162;8.548;2022-11-10T03:07:56;10.80;;;5.78;;
24637;SDS011;12773;50.162;8.548;2022-11-10T03:10:45;22.10;;;5.95;;
24637;SDS011;12773;50.162;8.548;2022-11-10T03:13:32;17.82;;;5.47;;
24637;SDS011;12773;50.162;8.548;2022-11-10T03:16:21;20.05;;;5.72;;
24637;SDS011;12773;50.162;8.548;2022-11-10T03:19:08;20.17;;;6.15;;
24637;SDS011;12773;50.162;8.548;2022-11-10T03:21:56;18.42;;;6.45;;
24637;SDS011;12773;50.162;8.548;2022-11-10T03:24:43;21.10;;;7.05;;
24637;SDS011;12773;50.162;8.548;2022-11-10T03:27:30;16.20;;;6.20;;
24637;SDS011;12773;50.162;8.548;2022-11-10T03:30:18;18.07;;;6.90;;
24637;SDS011;12773;50.162;8.548;2022-11-10T03:33:05;17.07;;;6.22;;
24637;SDS011;12773;50.162;8.548;2022-11-10T03:35:52;28.17;;;6.70;;
24637;SDS011;12773;50.162;8.548;2022-11-10T03:38:40;25.57;;;6.50;;
24637;SDS011;12773;50.162;8.548;2022-11-10T03:41:27;20.90;;;6.20;;
24637;SDS011;12773;50.162;8.548;2022-11-10T03:44:14;25.02;;;6.45;;
24637;SDS011;12773;50.162;8.548;2022-11-10T03:47:02;20.95;;;6.85;;
24637;SDS011;12773;50.162;8.548;2022-11-10T03:49:49;27.25;;;7.65;;
24637;SDS011;12773;50.162;8.548;2022-11-10T03:52:37;20.40;;;7.22;;
24637;SDS011;12773;50.162;8.548;2022-11-10T03:55:25;20.00;;;7.20;;
24637;SDS011;12773;50.162;8.548;2022-11-10T03:58:13;19.17;;;7.60;;
24637;SDS011;12773;50.162;8.548;2022-11-10T04:01:00;11.65;;;5.58;;
24637;SDS011;12773;50.162;8.548;2022-11-10T04:03:48;18.92;;;5.58;;
24637;SDS011;12773;50.162;8.548;2022-11-10T04:06:36;19.85;;;6.08;;
24637;SDS011;12773;50.162;8.548;2022-11-10T04:09:42;15.30;;;6.03;;
24637;SDS011;12773;50.162;8.548;2022-11-10T04:12:29;12.65;;;5.70;;
24637;SDS011;12773;50.162;8.548;2022-11-10T04:15:34;19.32;;;6.28;;
24637;SDS011;12773;50.162;8.548;2022-11-10T04:18:27;18.52;;;6.83;;
24637;SDS011;12773;50.162;8.548;2022-11-10T04:21:15;23.22;;;7.50;;
24637;SDS011;12773;50.162;8.548;2022-11-10T04:24:03;22.48;;;6.87;;
24637;SDS011;12773;50.162;8.548;2022-11-10T04:26:50;22.50;;;7.15;;
24637;SDS011;12773;50.162;8.548;2022-11-10T04:29:38;23.35;;;6.67;;
24637;SDS011;12773;50.162;8.548;2022-11-10T04:32:25;22.70;;;7.45;;
24637;SDS011;12773;50.162;8.548;2022-11-10T04:35:13;20.75;;;6.20;;
24637;SDS011;12773;50.162;8.548;2022-11-10T04:38:00;18.70;;;6.80;;
24637;SDS011;12773;50.162;8.548;2022-11-10T04:40:46;19.50;;;6.15;;
24637;SDS011;12773;50.162;8.548;2022-11-10T04:43:34;24.32;;;7.08;;
24637;SDS011;12773;50.162;8.548;2022-11-10T04:49:13;19.92;;;5.90;;
24637;SDS011;12773;50.162;8.548;2022-11-10T04:52:00;16.35;;;5.62;;
24637;SDS011;12773;50.162;8.548;2022-11-10T04:54:48;14.47;;;5.55;;
24637;SDS011;12773;50.162;8.548;2022-11-10T04:57:36;18.48;;;5.95;;
24637;SDS011;12773;50.162;8.548;2022-11-10T05:00:23;13.60;;;5.75;;
24637;SDS011;12773;50.162;8.548;2022-11-10T05:03:10;12.90;;;5.87;;
24637;SDS011;12773;50.162;8.548;2022-11-10T05:05:58;16.75;;;4.85;;
24637;SDS011;12773;50.162;8.548;2022-11-10T05:08:45;12.18;;;4.80;;
24637;SDS011;12773;50.162;8.548;2022-11-10T05:11:33;15.23;;;4.97;;
24637;SDS011;12773;50.162;8.548;2022-11-10T05:14:21;13.98;;;5.08;;
24637;SDS011;12773;50.162;8.548;2022-11-10T05:17:08;13.08;;;5.30;;
24637;SDS011;12773;50.162;8.548;2022-11-10T05:19:55;14.30;;;5.35;;
24637;SDS011;12773;50.162;8.548;2022-11-10T05:22:43;12.98;;;5.25;;
24637;SDS011;12773;50.162;8.548;2022-11-10T05:25:34;19.77;;;6.10;;
24637;SDS011;12773;50.162;8.548;2022-11-10T05:28:23;17.30;;;5.20;;
24637;SDS011;12773;50.162;8.548;2022-11-10T05:31:10;15.32;;;4.92;;
24637;SDS011;12773;50.162;8.548;2022-11-10T05:33:58;14.85;;;5.33;;
24637;SDS011;12773;50.162;8.548;2022-11-10T05:36:45;13.55;;;4.80;;
24637;SDS011;12773;50.162;8.548;2022-11-10T05:39:33;20.45;;;6.00;;
24637;SDS011;12773;50.162;8.548;2022-11-10T05:42:20;19.15;;;6.40;;
24637;SDS011;12773;50.162;8.548;2022-11-10T05:45:07;16.32;;;6.37;;
24637;SDS011;12773;50.162;8.548;2022-11-10T05:47:55;19.48;;;6.75;;
24637;SDS011;12773;50.162;8.548;2022-11-10T05:50:43;23.52;;;6.70;;
24637;SDS011;12773;50.162;8.548;2022-11-10T05:53:31;21.57;;;7.03;;
24637;SDS011;12773;50.162;8.548;2022-11-10T05:56:18;26.25;;;6.58;;
24637;SDS011;12773;50.162;8.548;2022-11-10T05:59:05;18.37;;;6.25;;
24637;SDS011;12773;50.162;8.548;2022-11-10T06:01:52;23.77;;;7.25;;
24637;SDS011;12773;50.162;8.548;2022-11-10T06:04:40;24.77;;;7.50;;
24637;SDS011;12773;50.162;8.548;2022-11-10T06:07:27;26.87;;;7.50;;
24637;SDS011;12773;50.162;8.548;2022-11-10T06:10:15;21.75;;;6.85;;
24637;SDS011;12773;50.162;8.548;2022-11-10T06:13:03;19.30;;;7.22;;
24637;SDS011;12773;50.162;8.548;2022-11-10T06:15:50;15.83;;;6.75;;
24637;SDS011;12773;50.162;8.548;2022-11-10T06:18:38;26.45;;;6.37;;
24637;SDS011;12773;50.162;8.548;2022-11-10T06:21:25;19.00;;;7.20;;
24637;SDS011;12773;50.162;8.548;2022-11-10T06:24:13;19.00;;;6.62;;
24637;SDS011;12773;50.162;8.548;2022-11-10T06:27:00;21.80;;;7.30;;
24637;SDS011;12773;50.162;8.548;2022-11-10T06:29:47;20.10;;;6.85;;
24637;SDS011;12773;50.162;8.548;2022-11-10T06:32:35;20.40;;;7.72;;
24637;SDS011;12773;50.162;8.548;2022-11-10T06:35:22;23.12;;;8.05;;
24637;SDS011;12773;50.162;8.548;2022-11-10T06:38:10;19.62;;;7.00;;
24637;SDS011;12773;50.162;8.548;2022-11-10T06:40:58;20.57;;;7.65;;
24637;SDS011;12773;50.162;8.548;2022-11-10T06:43:45;19.20;;;6.47;;
24637;SDS011;12773;50.162;8.548;2022-11-10T06:46:32;28.07;;;7.87;;
24637;SDS011;12773;50.162;8.548;2022-11-10T06:49:21;21.20;;;7.53;;
24637;SDS011;12773;50.162;8.548;2022-11-10T06:52:09;26.95;;;8.50;;
24637;SDS011;12773;50.162;8.548;2022-11-10T06:54:57;18.15;;;6.62;;
24637;SDS011;12773;50.162;8.548;2022-11-10T06:57:44;21.55;;;6.35;;
24637;SDS011;12773;50.162;8.548;2022-11-10T07:00:32;22.17;;;7.10;;
24637;SDS011;12773;50.162;8.548;2022-11-10T07:03:19;23.22;;;6.72;;
24637;SDS011;12773;50.162;8.548;2022-11-10T07:06:06;26.17;;;8.10;;
24637;SDS011;12773;50.162;8.548;2022-11-10T07:08:54;31.00;;;8.68;;
24637;SDS011;12773;50.162;8.548;2022-11-10T07:11:41;25.12;;;7.97;;
24637;SDS011;12773;50.162;8.548;2022-11-10T07:14:29;26.97;;;8.78;;
24637;SDS011;12773;50.162;8.548;2022-11-10T07:17:16;25.25;;;9.28;;
24637;SDS011;12773;50.162;8.548;2022-11-10T07:20:05;25.30;;;8.50;;
24637;SDS011;12773;50.162;8.548;2022-11-10T07:23:00;21.68;;;7.75;;
24637;SDS011;12773;50.162;8.548;2022-11-10T07:25:48;26.87;;;8.83;;
24637;SDS011;12773;50.162;8.548;2022-11-10T07:28:36;33.25;;;10.32;;
24637;SDS011;12773;50.162;8.548;2022-11-10T07:31:23;25.85;;;9.50;;
24637;SDS011;12773;50.162;8.548;2022-11-10T07:34:11;25.05;;;9.60;;
24637;SDS011;12773;50.162;8.548;2022-11-10T07:36:58;25.00;;;8.83;;
24637;SDS011;12773;50.162;8.548;2022-11-10T07:39:46;20.90;;;8.03;;
24637;SDS011;12773;50.162;8.548;2022-11-10T07:42:37;22.73;;;7.25;;
24637;SDS011;12773;50.162;8.548;2022-11-10T07:45:25;16.07;;;6.87;;
24637;SDS011;12773;50.162;8.548;2022-11-10T07:48:13;24.98;;;8.43;;
24637;SDS011;12773;50.162;8.548;2022-11-10T07:51:01;22.75;;;9.43;;
24637;SDS011;12773;50.162;8.548;2022-11-10T07:53:48;28.73;;;9.60;;
24637;SDS011;12773;50.162;8.548;2022-11-10T07:56:36;31.50;;;9.80;;
24637;SDS011;12773;50.162;8.548;2022-11-10T07:59:23;28.55;;;9.08;;
24637;SDS011;12773;50.162;8.548;2022-11-10T08:02:10;32.60;;;9.30;;
24637;SDS011;12773;50.162;8.548;2022-11-10T08:04:58;30.15;;;9.60;;
24637;SDS011;12773;50.162;8.548;2022-11-10T08:07:45;33.63;;;10.58;;
24637;SDS011;12773;50.162;8.548;2022-11-10T08:10:33;25.00;;;8.75;;
24637;SDS011;12773;50.162;8.548;2022-11-10T08:13:20;28.80;;;9.53;;
24637;SDS011;12773;50.162;8.548;2022-11-10T08:16:08;27.32;;;8.45;;
24637;SDS011;12773;50.162;8.548;2022-11-10T08:18:55;27.90;;;9.33;;
24637;SDS011;12773;50.162;8.548;2022-11-10T08:21:43;26.20;;;8.40;;
24637;SDS011;12773;50.162;8.548;2022-11-10T08:24:30;22.02;;;8.68;;
24637;SDS011;12773;50.162;8.548;2022-11-10T08:27:18;24.82;;;9.10;;
24637;SDS011;12773;50.162;8.548;2022-11-10T08:30:06;28.55;;;8.95;;
24637;SDS011;12773;50.162;8.548;2022-11-10T08:33:00;26.25;;;8.93;;
24637;SDS011;12773;50.162;8.548;2022-11-10T08:35:44;26.12;;;9.50;;
24637;SDS011;12773;50.162;8.548;2022-11-10T08:38:34;31.48;;;10.58;;
24637;SDS011;12773;50.162;8.548;2022-11-10T08:41:21;20.82;;;9.98;;
24637;SDS011;12773;50.162;8.548;2022-11-10T08:44:08;30.15;;;10.88;;
24637;SDS011;12773;50.162;8.548;2022-11-10T08:46:58;29.30;;;9.58;;
24637;SDS011;12773;50.162;8.548;2022-11-10T08:49:46;34.35;;;10.25;;
24637;SDS011;12773;50.162;8.548;2022-11-10T08:52:33;25.10;;;10.90;;
24637;SDS011;12773;50.162;8.548;2022-11-10T08:55:21;31.55;;;10.75;;
24637;SDS011;12773;50.162;8.548;2022-11-10T08:58:12;21.35;;;10.00;;
24637;SDS011;12773;50.162;8.548;2022-11-10T09:01:00;29.80;;;9.90;;
24637;SDS011;12773;50.162;8.548;2022-11-10T09:03:48;22.60;;;9.20;;
24637;SDS011;12773;50.162;8.548;2022-11-10T09:06:35;21.05;;;8.85;;
24637;SDS011;12773;50.162;8.548;2022-11-10T09:09:23;22.48;;;9.35;;
24637;SDS011;12773;50.162;8.548;2022-11-10T09:12:11;24.02;;;9.15;;
24637;SDS011;12773;50.162;8.548;2022-11-10T09:14:59;23.22;;;8.25;;
24637;SDS011;12773;50.162;8.548;2022-11-10T09:17:46;18.90;;;8.88;;
24637;SDS011;12773;50.162;8.548;2022-11-10T09:20:35;14.60;;;7.65;;
24637;SDS011;12773;50.162;8.548;2022-11-10T09:23:23;15.63;;;7.40;;
24637;SDS011;12773;50.162;8.548;2022-11-10T09:26:12;22.62;;;7.37;;
24637;SDS011;12773;50.162;8.548;2022-11-10T09:29:00;18.02;;;6.50;;
24637;SDS011;12773;50.162;8.548;2022-11-10T09:31:47;13.85;;;6.47;;
24637;SDS011;12773;50.162;8.548;2022-11-10T09:34:36;19.42;;;6.75;;
24637;SDS011;12773;50.162;8.548;2022-11-10T09:37:23;12.40;;;5.78;;
24637;SDS011;12773;50.162;8.548;2022-11-10T09:40:22;14.18;;;6.30;;
24637;SDS011;12773;50.162;8.548;2022-11-10T09:43:04;18.57;;;6.75;;
24637;SDS011;12773;50.162;8.548;2022-11-10T09:45:54;12.70;;;6.05;;
24637;SDS011;12773;50.162;8.548;2022-11-10T09:48:48;13.20;;;6.15;;
24637;SDS011;12773;50.162;8.548;2022-11-10T09:51:38;16.05;;;5.12;;
24637;SDS011;12773;50.162;8.548;2022-11-10T09:54:38;11.03;;;5.62;;
24637;SDS011;12773;50.162;8.548;2022-11-10T09:57:26;16.32;;;5.85;;
24637;SDS011;12773;50.162;8.548;2022-11-10T10:00:15;12.10;;;4.87;;
24637;SDS011;12773;50.162;8.548;2022-11-10T10:03:04;13.80;;;5.40;;
24637;SDS011;12773;50.162;8.548;2022-11-10T10:05:54;12.23;;;5.00;;
24637;SDS011;12773;50.162;8.548;2022-11-10T10:09:00;10.45;;;4.83;;
24637;SDS011;12773;50.162;8.548;2022-11-10T10:12:14;16.67;;;4.55;;
24637;SDS011;12773;50.162;8.548;2022-11-10T10:18:35;13.50;;;4.77;;
24637;SDS011;12773;50.162;8.548;2022-11-10T10:24:33;11.15;;;3.95;;
24637;SDS011;12773;50.162;8.548;2022-11-10T10:27:24;9.83;;;4.28;;
24637;SDS011;12773;50.162;8.548;2022-11-10T10:30:20;15.20;;;5.08;;
24637;SDS011;12773;50.162;8.548;2022-11-10T10:33:16;15.65;;;5.00;;
24637;SDS011;12773;50.162;8.548;2022-11-10T10:35:59;13.40;;;5.53;;
24637;SDS011;12773;50.162;8.548;2022-11-10T10:38:55;15.15;;;5.67;;
24637;SDS011;12773;50.162;8.548;2022-11-10T10:41:49;18.62;;;6.05;;
24637;SDS011;12773;50.162;8.548;2022-11-10T10:44:39;15.10;;;5.65;;
24637;SDS011;12773;50.162;8.548;2022-11-10T10:47:37;19.05;;;6.12;;
24637;SDS011;12773;50.162;8.548;2022-11-10T10:50:30;18.20;;;6.42;;
24637;SDS011;12773;50.162;8.548;2022-11-10T10:53:22;14.20;;;5.70;;
24637;SDS011;12773;50.162;8.548;2022-11-10T10:56:17;14.03;;;6.08;;
24637;SDS011;12773;50.162;8.548;2022-11-10T10:59:08;10.93;;;6.20;;
24637;SDS011;12773;50.162;8.548;2022-11-10T11:01:58;13.60;;;5.83;;
24637;SDS011;12773;50.162;8.548;2022-11-10T11:04:45;16.77;;;5.58;;
24637;SDS011;12773;50.162;8.548;2022-11-10T11:07:34;11.85;;;4.62;;
24637;SDS011;12773;50.162;8.548;2022-11-10T11:10:23;15.05;;;4.35;;
24637;SDS011;12773;50.162;8.548;2022-11-10T11:13:22;11.35;;;3.77;;
24637;SDS011;12773;50.162;8.548;2022-11-10T11:16:12;16.15;;;3.58;;
24637;SDS011;12773;50.162;8.548;2022-11-10T11:18:59;10.18;;;3.15;;
24637;SDS011;12773;50.162;8.548;2022-11-10T11:22:31;9.70;;;3.30;;
24637;SDS011;12773;50.162;8.548;2022-11-10T11:31:08;15.25;;;3.25;;
24637;SDS011;12773;50.162;8.548;2022-11-10T11:34:05;14.45;;;2.98;;
24637;SDS011;12773;50.162;8.548;2022-11-10T11:37:20;10.63;;;3.00;;
24637;SDS011;12773;50.162;8.548;2022-11-10T11:40:04;11.45;;;3.25;;
24637;SDS011;12773;50.162;8.548;2022-11-10T11:43:08;14.35;;;3.60;;
24637;SDS011;12773;50.162;8.548;2022-11-10T11:46:00;11.85;;;3.33;;
24637;SDS011;12773;50.162;8.548;2022-11-10T11:52:16;13.35;;;3.12;;
24637;SDS011;12773;50.162;8.548;2022-11-10T11:58:21;10.03;;;3.00;;
24637;SDS011;12773;50.162;8.548;2022-11-10T12:10:54;12.90;;;2.83;;
24637;SDS011;12773;50.162;8.548;2022-11-10T12:16:37;10.13;;;2.77;;
24637;SDS011;12773;50.162;8.548;2022-11-10T12:19:32;12.10;;;2.90;;
24637;SDS011;12773;50.162;8.548;2022-11-10T12:22:28;7.90;;;2.52;;
24637;SDS011;12773;50.162;8.548;2022-11-10T12:25:20;9.68;;;2.60;;
24637;SDS011;12773;50.162;8.548;2022-11-10T12:28:12;9.63;;;2.60;;
24637;SDS011;12773;50.162;8.548;2022-11-10T12:31:09;9.48;;;2.50;;
24637;SDS011;12773;50.162;8.548;2022-11-10T12:33:59;13.83;;;2.22;;
24637;SDS011;12773;50.162;8.548;2022-11-10T12:36:53;8.43;;;2.12;;
24637;SDS011;12773;50.162;8.548;2022-11-10T12:39:46;8.80;;;2.27;;
24637;SDS011;12773;50.162;8.548;2022-11-10T12:42:36;11.43;;;2.50;;
24637;SDS011;12773;50.162;8.548;2022-11-10T12:48:24;7.62;;;1.92;;
24637;SDS011;12773;50.162;8.548;2022-11-10T12:51:26;6.50;;;1.87;;
24637;SDS011;12773;50.162;8.548;2022-11-10T12:54:20;7.40;;;1.82;;
24637;SDS011;12773;50.162;8.548;2022-11-10T12:57:11;8.15;;;2.15;;
24637;SDS011;12773;50.162;8.548;2022-11-10T13:00:05;9.63;;;2.50;;
24637;SDS011;12773;50.162;8.548;2022-11-10T13:02:56;9.88;;;2.12;;
24637;SDS011;12773;50.162;8.548;2022-11-10T13:05:50;8.50;;;2.00;;
24637;SDS011;12773;50.162;8.548;2022-11-10T13:11:32;6.17;;;2.00;;
24637;SDS011;12773;50.162;8.548;2022-11-10T13:14:26;9.93;;;2.00;;
24637;SDS011;12773;50.162;8.548;2022-11-10T13:21:01;11.70;;;1.77;;
24637;SDS011;12773;50.162;8.548;2022-11-10T13:23:30;10.23;;;1.67;;
24637;SDS011;12773;50.162;8.548;2022-11-10T13:32:34;12.15;;;2.67;;
24637;SDS011;12773;50.162;8.548;2022-11-10T13:41:24;10.00;;;2.05;;
24637;SDS011;12773;50.162;8.548;2022-11-10T13:44:28;8.50;;;2.17;;
24637;SDS011;12773;50.162;8.548;2022-11-10T13:56:55;9.13;;;1.90;;
24637;SDS011;12773;50.162;8.548;2022-11-10T13:59:59;7.78;;;2.02;;
24637;SDS011;12773;50.162;8.548;2022-11-10T14:02:49;6.42;;;1.80;;
24637;SDS011;12773;50.162;8.548;2022-11-10T14:05:57;9.50;;;2.27;;
24637;SDS011;12773;50.162;8.548;2022-11-10T14:08:28;9.85;;;2.00;;
24637;SDS011;12773;50.162;8.548;2022-11-10T14:11:20;4.95;;;1.82;;
24637;SDS011;12773;50.162;8.548;2022-11-10T14:14:15;11.38;;;2.12;;
24637;SDS011;12773;50.162;8.548;2022-11-10T14:19:55;6.75;;;1.87;;
24637;SDS011;12773;50.162;8.548;2022-11-10T14:22:44;7.17;;;2.05;;
24637;SDS011;12773;50.162;8.548;2022-11-10T14:25:38;8.35;;;2.17;;
24637;SDS011;12773;50.162;8.548;2022-11-10T14:31:19;8.85;;;2.20;;
24637;SDS011;12773;50.162;8.548;2022-11-10T14:34:12;7.12;;;2.20;;
24637;SDS011;12773;50.162;8.548;2022-11-10T14:37:01;11.03;;;2.05;;
24637;SDS011;12773;50.162;8.548;2022-11-10T14:39:56;11.80;;;2.70;;
24637;SDS011;12773;50.162;8.548;2022-11-10T14:42:46;10.30;;;3.30;;
24637;SDS011;12773;50.162;8.548;2022-11-10T14:45:33;9.60;;;2.42;;
24637;SDS011;12773;50.162;8.548;2022-11-10T14:48:25;8.48;;;2.17;;
24637;SDS011;12773;50.162;8.548;2022-11-10T14:51:14;15.00;;;2.65;;
24637;SDS011;12773;50.162;8.548;2022-11-10T14:54:10;10.40;;;2.50;;
24637;SDS011;12773;50.162;8.548;2022-11-10T14:56:59;7.92;;;2.52;;
24637;SDS011;12773;50.162;8.548;2022-11-10T14:59:47;9.30;;;2.37;;
24637;SDS011;12773;50.162;8.548;2022-11-10T15:02:34;13.68;;;2.17;;
24637;SDS011;12773;50.162;8.548;2022-11-10T15:05:23;7.37;;;2.50;;
24637;SDS011;12773;50.162;8.548;2022-11-10T15:08:11;12.00;;;2.98;;
24637;SDS011;12773;50.162;8.548;2022-11-10T15:11:00;8.40;;;2.75;;
24637;SDS011;12773;50.162;8.548;2022-11-10T15:13:48;15.03;;;3.22;;
24637;SDS011;12773;50.162;8.548;2022-11-10T15:16:37;10.30;;;2.90;;
24637;SDS011;12773;50.162;8.548;2022-11-10T15:19:26;13.50;;;3.58;;
24637;SDS011;12773;50.162;8.548;2022-11-10T15:22:19;13.93;;;3.30;;
24637;SDS011;12773;50.162;8.548;2022-11-10T15:25:13;15.45;;;3.35;;
24637;SDS011;12773;50.162;8.548;2022-11-10T15:31:12;12.03;;;3.80;;
24637;SDS011;12773;50.162;8.548;2022-11-10T15:37:28;12.07;;;3.67;;
24637;SDS011;12773;50.162;8.548;2022-11-10T15:40:29;11.03;;;3.40;;
24637;SDS011;12773;50.162;8.548;2022-11-10T15:46:13;12.03;;;4.00;;
24637;SDS011;12773;50.162;8.548;2022-11-10T15:49:07;13.25;;;3.70;;
24637;SDS011;12773;50.162;8.548;2022-11-10T15:51:57;12.70;;;3.95;;
24637;SDS011;12773;50.162;8.548;2022-11-10T15:54:46;14.98;;;4.97;;
24637;SDS011;12773;50.162;8.548;2022-11-10T15:57:35;15.38;;;5.53;;
24637;SDS011;12773;50.162;8.548;2022-11-10T16:00:23;16.42;;;6.95;;
24637;SDS011;12773;50.162;8.548;2022-11-10T16:03:14;21.62;;;8.80;;
24637;SDS011;12773;50.162;8.548;2022-11-10T16:06:03;16.02;;;5.67;;
24637;SDS011;12773;50.162;8.548;2022-11-10T16:08:51;17.42;;;4.97;;
24637;SDS011;12773;50.162;8.548;2022-11-10T16:11:42;14.55;;;4.65;;
24637;SDS011;12773;50.162;8.548;2022-11-10T16:14:29;10.63;;;4.05;;
24637;SDS011;12773;50.162;8.548;2022-11-10T16:17:17;13.98;;;4.72;;
24637;SDS011;12773;50.162;8.548;2022-11-10T16:20:12;16.60;;;5.10;;
24637;SDS011;12773;50.162;8.548;2022-11-10T16:23:02;18.85;;;5.80;;
24637;SDS011;12773;50.162;8.548;2022-11-10T16:25:49;16.02;;;5.90;;
24637;SDS011;12773;50.162;8.548;2022-11-10T16:28:38;16.80;;;6.22;;
24637;SDS011;12773;50.162;8.548;2022-11-10T16:31:27;20.52;;;5.85;;
24637;SDS011;12773;50.162;8.548;2022-11-10T16:34:17;12.03;;;5.28;;
24637;SDS011;12773;50.162;8.548;2022-11-10T16:37:08;14.93;;;5.20;;
24637;SDS011;12773;50.162;8.548;2022-11-10T16:39:56;10.43;;;4.65;;
24637;SDS011;12773;50.162;8.548;2022-11-10T16:42:43;19.07;;;6.15;;
24637;SDS011;12773;50.162;8.548;2022-11-10T16:45:31;12.75;;;5.28;;
24637;SDS011;12773;50.162;8.548;2022-11-10T16:48:22;12.80;;;5.15;;
24637;SDS011;12773;50.162;8.548;2022-11-10T16:51:11;10.58;;;4.47;;
24637;SDS011;12773;50.162;8.548;2022-11-10T16:54:00;18.73;;;5.12;;
24637;SDS011;12773;50.162;8.548;2022-11-10T16:56:47;13.53;;;4.37;;
24637;SDS011;12773;50.162;8.548;2022-11-10T16:59:36;14.45;;;4.92;;
24637;SDS011;12773;50.162;8.548;2022-11-10T17:02:25;19.55;;;5.35;;
24637;SDS011;12773;50.162;8.548;2022-11-10T17:05:18;16.50;;;4.30;;
24637;SDS011;12773;50.162;8.548;2022-11-10T17:08:09;11.60;;;4.03;;
24637;SDS011;12773;50.162;8.548;2022-11-10T17:10:57;15.93;;;4.22;;
24637;SDS011;12773;50.162;8.548;2022-11-10T17:13:46;13.38;;;4.08;;
24637;SDS011;12773;50.162;8.548;2022-11-10T17:16:34;10.88;;;4.08;;
24637;SDS011;12773;50.162;8.548;2022-11-10T17:19:23;9.10;;;3.42;;
24637;SDS011;12773;50.162;8.548;2022-11-10T17:22:13;14.03;;;4.12;;
24637;SDS011;12773;50.162;8.548;2022-11-10T17:25:03;14.78;;;4.15;;
24637;SDS011;12773;50.162;8.548;2022-11-10T17:27:51;11.05;;;3.72;;
24637;SDS011;12773;50.162;8.548;2022-11-10T17:30:39;12.78;;;4.00;;
24637;SDS011;12773;50.162;8.548;2022-11-10T17:33:27;11.53;;;4.00;;
24637;SDS011;12773;50.162;8.548;2022-11-10T17:36:18;14.03;;;4.55;;
24637;SDS011;12773;50.162;8.548;2022-11-10T17:39:12;13.78;;;4.62;;
24637;SDS011;12773;50.162;8.548;2022-11-10T17:42:00;12.05;;;4.20;;
24637;SDS011;12773;50.162;8.548;2022-11-10T17:44:48;12.58;;;4.03;;
24637;SDS011;12773;50.162;8.548;2022-11-10T17:47:38;9.13;;;3.65;;
24637;SDS011;12773;50.162;8.548;2022-11-10T17:50:26;7.37;;;3.60;;
24637;SDS011;12773;50.162;8.548;2022-11-10T17:53:23;8.50;;;4.08;;
24637;SDS011;12773;50.162;8.548;2022-11-10T17:56:13;17.25;;;5.10;;
24637;SDS011;12773;50.162;8.548;2022-11-10T17:59:01;13.58;;;4.85;;
24637;SDS011;12773;50.162;8.548;2022-11-10T18:01:48;12.03;;;4.28;;
24637;SDS011;12773;50.162;8.548;2022-11-10T18:04:37;13.53;;;4.78;;
24637;SDS011;12773;50.162;8.548;2022-11-10T18:07:24;13.10;;;4.80;;
24637;SDS011;12773;50.162;8.548;2022-11-10T18:10:12;14.90;;;4.70;;
24637;SDS011;12773;50.162;8.548;2022-11-10T18:13:00;21.82;;;5.45;;